sensor_id;sensor_type;location;lat;lon;timestamp;P1;durP1;ratioP1;P2;durP2;ratioP2
68653;SDS011;55636;51.108;13.622;2022-12-07T00:01:04;7.53;;;6.37;;
68653;SDS011;55636;51.108;13.622;2022-12-07T00:02:11;8.27;;;6.80;;
68653;SDS011;55636;51.108;13.622;2022-12-07T00:03:14;7.07;;;6.37;;
68653;SDS011;55636;51.108;13.622;2022-12-07T00:04:17;7.53;;;6.53;;
68653;SDS011;55636;51.108;13.622;2022-12-07T00:05:21;7.13;;;6.17;;
68653;SDS011;55636;51.108;13.622;2022-12-07T00:06:23;7.73;;;6.80;;
68653;SDS011;55636;51.108;13.622;2022-12-07T00:07:25;7.63;;;6.83;;
68653;SDS011;55636;51.108;13.622;2022-12-07T00:08:29;7.83;;;6.50;;
68653;SDS011;55636;51.108;13.622;2022-12-07T00:09:32;7.60;;;6.50;;
68653;SDS011;55636;51.108;13.622;2022-12-07T00:11:00;7.93;;;6.43;;
68653;SDS011;55636;51.108;13.622;2022-12-07T00:12:12;7.50;;;6.70;;
68653;SDS011;55636;51.108;13.622;2022-12-07T00:13:14;6.97;;;6.27;;
68653;SDS011;55636;51.108;13.622;2022-12-07T00:14:20;7.70;;;6.33;;
68653;SDS011;55636;51.108;13.622;2022-12-07T00:15:23;7.77;;;6.50;;
68653;SDS011;55636;51.108;13.622;2022-12-07T00:16:26;7.63;;;6.63;;
68653;SDS011;55636;51.108;13.622;2022-12-07T00:17:34;8.47;;;6.60;;
68653;SDS011;55636;51.108;13.622;2022-12-07T00:18:36;7.83;;;6.60;;
68653;SDS011;55636;51.108;13.622;2022-12-07T00:19:39;7.53;;;6.70;;
68653;SDS011;55636;51.108;13.622;2022-12-07T00:20:41;7.93;;;6.70;;
68653;SDS011;55636;51.108;13.622;2022-12-07T00:21:44;7.93;;;6.37;;
68653;SDS011;55636;51.108;13.622;2022-12-07T00:22:49;6.83;;;6.03;;
68653;SDS011;55636;51.108;13.622;2022-12-07T00:23:51;8.30;;;6.60;;
68653;SDS011;55636;51.108;13.622;2022-12-07T00:24:57;7.73;;;6.77;;
68653;SDS011;55636;51.108;13.622;2022-12-07T00:26:34;7.37;;;6.50;;
68653;SDS011;55636;51.108;13.622;2022-12-07T00:27:38;7.70;;;6.43;;
68653;SDS011;55636;51.108;13.622;2022-12-07T00:28:41;7.87;;;6.70;;
68653;SDS011;55636;51.108;13.622;2022-12-07T00:29:46;7.83;;;6.70;;
68653;SDS011;55636;51.108;13.622;2022-12-07T00:30:51;7.50;;;6.50;;
68653;SDS011;55636;51.108;13.622;2022-12-07T00:31:54;8.00;;;6.67;;
68653;SDS011;55636;51.108;13.622;2022-12-07T00:32:56;8.33;;;7.13;;
68653;SDS011;55636;51.108;13.622;2022-12-07T00:33:59;7.60;;;6.80;;
68653;SDS011;55636;51.108;13.622;2022-12-07T00:35:01;7.80;;;7.00;;
68653;SDS011;55636;51.108;13.622;2022-12-07T00:36:05;8.20;;;6.67;;
68653;SDS011;55636;51.108;13.622;2022-12-07T00:37:10;8.67;;;7.07;;
68653;SDS011;55636;51.108;13.622;2022-12-07T00:38:12;7.50;;;6.70;;
68653;SDS011;55636;51.108;13.622;2022-12-07T00:39:14;8.03;;;6.90;;
68653;SDS011;55636;51.108;13.622;2022-12-07T00:40:17;8.43;;;7.37;;
68653;SDS011;55636;51.108;13.622;2022-12-07T00:41:20;7.60;;;6.60;;
68653;SDS011;55636;51.108;13.622;2022-12-07T00:42:24;8.40;;;7.00;;
68653;SDS011;55636;51.108;13.622;2022-12-07T00:43:27;8.50;;;6.97;;
68653;SDS011;55636;51.108;13.622;2022-12-07T00:44:29;8.17;;;7.17;;
68653;SDS011;55636;51.108;13.622;2022-12-07T00:45:31;8.13;;;6.73;;
68653;SDS011;55636;51.108;13.622;2022-12-07T00:46:34;8.63;;;7.37;;
68653;SDS011;55636;51.108;13.622;2022-12-07T00:47:36;8.43;;;6.97;;
68653;SDS011;55636;51.108;13.622;2022-12-07T00:48:39;9.47;;;7.33;;
68653;SDS011;55636;51.108;13.622;2022-12-07T00:49:41;7.63;;;6.83;;
68653;SDS011;55636;51.108;13.622;2022-12-07T00:50:45;9.23;;;7.00;;
68653;SDS011;55636;51.108;13.622;2022-12-07T00:51:48;9.13;;;7.47;;
68653;SDS011;55636;51.108;13.622;2022-12-07T00:52:51;8.83;;;7.40;;
68653;SDS011;55636;51.108;13.622;2022-12-07T00:53:56;7.87;;;6.70;;
68653;SDS011;55636;51.108;13.622;2022-12-07T00:54:59;8.90;;;6.97;;
68653;SDS011;55636;51.108;13.622;2022-12-07T00:57:09;8.23;;;7.33;;
68653;SDS011;55636;51.108;13.622;2022-12-07T00:58:12;9.13;;;7.57;;
68653;SDS011;55636;51.108;13.622;2022-12-07T00:59:14;9.43;;;7.13;;
68653;SDS011;55636;51.108;13.622;2022-12-07T01:00:17;7.50;;;6.70;;
68653;SDS011;55636;51.108;13.622;2022-12-07T01:01:20;8.37;;;7.40;;
68653;SDS011;55636;51.108;13.622;2022-12-07T01:02:22;8.57;;;7.07;;
68653;SDS011;55636;51.108;13.622;2022-12-07T01:03:25;9.17;;;7.87;;
68653;SDS011;55636;51.108;13.622;2022-12-07T01:04:27;9.77;;;7.27;;
68653;SDS011;55636;51.108;13.622;2022-12-07T01:05:29;10.90;;;7.33;;
68653;SDS011;55636;51.108;13.622;2022-12-07T01:06:31;7.43;;;6.27;;
68653;SDS011;55636;51.108;13.622;2022-12-07T01:07:34;8.67;;;6.97;;
68653;SDS011;55636;51.108;13.622;2022-12-07T01:08:39;7.73;;;6.50;;
68653;SDS011;55636;51.108;13.622;2022-12-07T01:09:41;8.30;;;7.17;;
68653;SDS011;55636;51.108;13.622;2022-12-07T01:10:43;8.80;;;7.50;;
68653;SDS011;55636;51.108;13.622;2022-12-07T01:11:45;9.03;;;7.27;;
68653;SDS011;55636;51.108;13.622;2022-12-07T01:12:48;8.13;;;7.10;;
68653;SDS011;55636;51.108;13.622;2022-12-07T01:13:51;9.20;;;7.27;;
68653;SDS011;55636;51.108;13.622;2022-12-07T01:14:55;8.70;;;7.23;;
68653;SDS011;55636;51.108;13.622;2022-12-07T01:15:58;8.07;;;6.83;;
68653;SDS011;55636;51.108;13.622;2022-12-07T01:17:01;9.20;;;7.60;;
68653;SDS011;55636;51.108;13.622;2022-12-07T01:18:04;9.53;;;7.90;;
68653;SDS011;55636;51.108;13.622;2022-12-07T01:19:06;8.90;;;7.63;;
68653;SDS011;55636;51.108;13.622;2022-12-07T01:20:08;9.10;;;7.40;;
68653;SDS011;55636;51.108;13.622;2022-12-07T01:21:30;9.10;;;7.50;;
68653;SDS011;55636;51.108;13.622;2022-12-07T01:22:40;8.33;;;7.30;;
68653;SDS011;55636;51.108;13.622;2022-12-07T01:23:43;9.20;;;7.30;;
68653;SDS011;55636;51.108;13.622;2022-12-07T01:24:46;8.83;;;7.27;;
68653;SDS011;55636;51.108;13.622;2022-12-07T01:25:56;9.53;;;7.70;;
68653;SDS011;55636;51.108;13.622;2022-12-07T01:27:02;9.97;;;7.70;;
68653;SDS011;55636;51.108;13.622;2022-12-07T01:28:05;9.50;;;8.03;;
68653;SDS011;55636;51.108;13.622;2022-12-07T01:29:08;9.27;;;7.53;;
68653;SDS011;55636;51.108;13.622;2022-12-07T01:30:10;9.53;;;7.27;;
68653;SDS011;55636;51.108;13.622;2022-12-07T01:31:14;8.07;;;7.10;;
68653;SDS011;55636;51.108;13.622;2022-12-07T01:32:18;9.50;;;7.30;;
68653;SDS011;55636;51.108;13.622;2022-12-07T01:33:20;8.67;;;7.23;;
68653;SDS011;55636;51.108;13.622;2022-12-07T01:34:22;9.30;;;7.77;;
68653;SDS011;55636;51.108;13.622;2022-12-07T01:35:25;9.03;;;6.93;;
68653;SDS011;55636;51.108;13.622;2022-12-07T01:36:28;9.13;;;7.53;;
68653;SDS011;55636;51.108;13.622;2022-12-07T01:37:35;9.20;;;7.20;;
68653;SDS011;55636;51.108;13.622;2022-12-07T01:38:38;9.00;;;7.53;;
68653;SDS011;55636;51.108;13.622;2022-12-07T01:39:41;9.97;;;7.80;;
68653;SDS011;55636;51.108;13.622;2022-12-07T01:40:43;8.50;;;7.17;;
68653;SDS011;55636;51.108;13.622;2022-12-07T01:41:46;8.80;;;7.50;;
68653;SDS011;55636;51.108;13.622;2022-12-07T01:42:48;8.90;;;6.83;;
68653;SDS011;55636;51.108;13.622;2022-12-07T01:45:31;9.60;;;7.00;;
68653;SDS011;55636;51.108;13.622;2022-12-07T01:46:42;8.90;;;7.47;;
68653;SDS011;55636;51.108;13.622;2022-12-07T01:47:47;10.37;;;7.40;;
68653;SDS011;55636;51.108;13.622;2022-12-07T01:48:58;9.47;;;7.40;;
68653;SDS011;55636;51.108;13.622;2022-12-07T01:50:01;9.67;;;7.27;;
68653;SDS011;55636;51.108;13.622;2022-12-07T01:51:05;8.20;;;6.67;;
68653;SDS011;55636;51.108;13.622;2022-12-07T01:53:32;9.07;;;7.23;;
68653;SDS011;55636;51.108;13.622;2022-12-07T01:54:38;7.70;;;6.53;;
68653;SDS011;55636;51.108;13.622;2022-12-07T01:55:41;7.63;;;6.83;;
68653;SDS011;55636;51.108;13.622;2022-12-07T01:56:48;8.13;;;6.77;;
68653;SDS011;55636;51.108;13.622;2022-12-07T01:57:55;8.87;;;6.90;;
68653;SDS011;55636;51.108;13.622;2022-12-07T01:58:57;7.60;;;6.80;;
68653;SDS011;55636;51.108;13.622;2022-12-07T02:00:03;8.17;;;6.80;;
68653;SDS011;55636;51.108;13.622;2022-12-07T02:01:15;7.77;;;6.17;;
68653;SDS011;55636;51.108;13.622;2022-12-07T02:02:20;7.00;;;6.30;;
68653;SDS011;55636;51.108;13.622;2022-12-07T02:03:36;7.10;;;6.37;;
68653;SDS011;55636;51.108;13.622;2022-12-07T02:04:41;7.20;;;6.43;;
68653;SDS011;55636;51.108;13.622;2022-12-07T02:05:44;6.77;;;6.07;;
68653;SDS011;55636;51.108;13.622;2022-12-07T02:06:48;6.87;;;6.07;;
68653;SDS011;55636;51.108;13.622;2022-12-07T02:07:53;7.73;;;6.23;;
68653;SDS011;55636;51.108;13.622;2022-12-07T02:08:57;6.93;;;5.90;;
68653;SDS011;55636;51.108;13.622;2022-12-07T02:10:16;6.70;;;6.00;;
68653;SDS011;55636;51.108;13.622;2022-12-07T02:11:20;6.50;;;5.63;;
68653;SDS011;55636;51.108;13.622;2022-12-07T02:12:23;5.93;;;5.30;;
68653;SDS011;55636;51.108;13.622;2022-12-07T02:13:27;7.87;;;6.00;;
68653;SDS011;55636;51.108;13.622;2022-12-07T02:14:33;6.13;;;5.17;;
68653;SDS011;55636;51.108;13.622;2022-12-07T02:15:48;5.83;;;5.23;;
68653;SDS011;55636;51.108;13.622;2022-12-07T02:17:09;7.23;;;5.87;;
68653;SDS011;55636;51.108;13.622;2022-12-07T02:18:24;6.37;;;5.43;;
68653;SDS011;55636;51.108;13.622;2022-12-07T02:20:57;6.67;;;5.70;;
68653;SDS011;55636;51.108;13.622;2022-12-07T02:23:40;6.10;;;5.30;;
68653;SDS011;55636;51.108;13.622;2022-12-07T02:24:48;6.20;;;5.60;;
68653;SDS011;55636;51.108;13.622;2022-12-07T02:28:45;6.40;;;5.10;;
68653;SDS011;55636;51.108;13.622;2022-12-07T02:30:06;5.83;;;5.20;;
68653;SDS011;55636;51.108;13.622;2022-12-07T02:31:15;5.80;;;5.20;;
68653;SDS011;55636;51.108;13.622;2022-12-07T02:32:36;5.37;;;4.87;;
68653;SDS011;55636;51.108;13.622;2022-12-07T02:34:29;6.07;;;5.40;;
68653;SDS011;55636;51.108;13.622;2022-12-07T02:35:18;6.63;;;5.50;;
68653;SDS011;55636;51.108;13.622;2022-12-07T02:36:27;6.07;;;5.47;;
68653;SDS011;55636;51.108;13.622;2022-12-07T02:38:47;6.50;;;5.50;;
68653;SDS011;55636;51.108;13.622;2022-12-07T02:39:59;6.43;;;5.50;;
68653;SDS011;55636;51.108;13.622;2022-12-07T02:42:17;6.73;;;5.37;;
68653;SDS011;55636;51.108;13.622;2022-12-07T02:43:28;6.33;;;5.63;;
68653;SDS011;55636;51.108;13.622;2022-12-07T02:44:37;5.93;;;5.30;;
68653;SDS011;55636;51.108;13.622;2022-12-07T02:45:40;7.43;;;6.07;;
68653;SDS011;55636;51.108;13.622;2022-12-07T02:46:55;6.37;;;5.27;;
68653;SDS011;55636;51.108;13.622;2022-12-07T02:48:02;6.10;;;5.40;;
68653;SDS011;55636;51.108;13.622;2022-12-07T02:49:07;7.17;;;5.60;;
68653;SDS011;55636;51.108;13.622;2022-12-07T02:50:11;6.00;;;5.33;;
68653;SDS011;55636;51.108;13.622;2022-12-07T02:51:14;6.77;;;5.90;;
68653;SDS011;55636;51.108;13.622;2022-12-07T02:52:16;7.57;;;6.23;;
68653;SDS011;55636;51.108;13.622;2022-12-07T02:54:50;6.83;;;5.83;;
68653;SDS011;55636;51.108;13.622;2022-12-07T02:55:52;6.33;;;5.63;;
68653;SDS011;55636;51.108;13.622;2022-12-07T02:58:31;7.10;;;6.37;;
68653;SDS011;55636;51.108;13.622;2022-12-07T03:01:06;7.30;;;5.93;;
68653;SDS011;55636;51.108;13.622;2022-12-07T03:03:42;7.07;;;6.37;;
68653;SDS011;55636;51.108;13.622;2022-12-07T03:06:28;7.27;;;6.23;;
68653;SDS011;55636;51.108;13.622;2022-12-07T03:10:33;8.40;;;7.00;;
68653;SDS011;55636;51.108;13.622;2022-12-07T03:11:47;7.87;;;6.57;;
68653;SDS011;55636;51.108;13.622;2022-12-07T03:12:57;7.33;;;6.60;;
68653;SDS011;55636;51.108;13.622;2022-12-07T03:14:18;8.00;;;6.90;;
68653;SDS011;55636;51.108;13.622;2022-12-07T03:15:29;7.87;;;6.73;;
68653;SDS011;55636;51.108;13.622;2022-12-07T03:16:37;7.83;;;7.03;;
68653;SDS011;55636;51.108;13.622;2022-12-07T03:17:49;7.87;;;6.70;;
68653;SDS011;55636;51.108;13.622;2022-12-07T03:18:55;9.03;;;7.43;;
68653;SDS011;55636;51.108;13.622;2022-12-07T03:20:02;7.40;;;6.67;;
68653;SDS011;55636;51.108;13.622;2022-12-07T03:21:12;8.53;;;7.10;;
68653;SDS011;55636;51.108;13.622;2022-12-07T03:22:18;9.67;;;7.10;;
68653;SDS011;55636;51.108;13.622;2022-12-07T03:23:21;9.70;;;8.37;;
68653;SDS011;55636;51.108;13.622;2022-12-07T03:24:28;8.33;;;7.40;;
68653;SDS011;55636;51.108;13.622;2022-12-07T03:25:33;8.23;;;7.27;;
68653;SDS011;55636;51.108;13.622;2022-12-07T03:26:41;9.10;;;7.57;;
68653;SDS011;55636;51.108;13.622;2022-12-07T03:29:06;9.50;;;7.77;;
68653;SDS011;55636;51.108;13.622;2022-12-07T03:30:14;9.40;;;7.63;;
68653;SDS011;55636;51.108;13.622;2022-12-07T03:31:22;9.80;;;8.00;;
68653;SDS011;55636;51.108;13.622;2022-12-07T03:33:54;8.80;;;7.47;;
68653;SDS011;55636;51.108;13.622;2022-12-07T03:35:04;8.83;;;7.47;;
68653;SDS011;55636;51.108;13.622;2022-12-07T03:36:14;9.33;;;7.80;;
68653;SDS011;55636;51.108;13.622;2022-12-07T03:37:36;9.50;;;8.00;;
68653;SDS011;55636;51.108;13.622;2022-12-07T03:38:46;8.77;;;7.67;;
68653;SDS011;55636;51.108;13.622;2022-12-07T03:40:02;9.60;;;8.00;;
68653;SDS011;55636;51.108;13.622;2022-12-07T03:41:23;9.60;;;7.90;;
68653;SDS011;55636;51.108;13.622;2022-12-07T03:42:28;9.20;;;7.90;;
68653;SDS011;55636;51.108;13.622;2022-12-07T03:43:32;9.37;;;7.87;;
68653;SDS011;55636;51.108;13.622;2022-12-07T03:44:36;9.23;;;7.87;;
68653;SDS011;55636;51.108;13.622;2022-12-07T03:45:42;8.67;;;7.47;;
68653;SDS011;55636;51.108;13.622;2022-12-07T03:48:17;8.53;;;7.53;;
68653;SDS011;55636;51.108;13.622;2022-12-07T03:51:57;9.00;;;7.90;;
68653;SDS011;55636;51.108;13.622;2022-12-07T03:53:04;9.73;;;7.97;;
68653;SDS011;55636;51.108;13.622;2022-12-07T03:55:32;11.60;;;8.57;;
68653;SDS011;55636;51.108;13.622;2022-12-07T03:56:39;9.37;;;7.80;;
68653;SDS011;55636;51.108;13.622;2022-12-07T04:00:00;9.13;;;7.57;;
68653;SDS011;55636;51.108;13.622;2022-12-07T04:02:41;9.63;;;8.30;;
68653;SDS011;55636;51.108;13.622;2022-12-07T04:04:23;9.60;;;7.13;;
68653;SDS011;55636;51.108;13.622;2022-12-07T04:05:26;9.27;;;7.27;;
68653;SDS011;55636;51.108;13.622;2022-12-07T04:06:29;9.87;;;7.67;;
68653;SDS011;55636;51.108;13.622;2022-12-07T04:07:31;9.63;;;7.80;;
68653;SDS011;55636;51.108;13.622;2022-12-07T04:08:36;10.57;;;7.67;;
68653;SDS011;55636;51.108;13.622;2022-12-07T04:09:39;9.93;;;7.63;;
68653;SDS011;55636;51.108;13.622;2022-12-07T04:10:41;9.40;;;8.10;;
68653;SDS011;55636;51.108;13.622;2022-12-07T04:11:43;8.37;;;7.23;;
68653;SDS011;55636;51.108;13.622;2022-12-07T04:12:46;9.27;;;7.67;;
68653;SDS011;55636;51.108;13.622;2022-12-07T04:13:48;9.47;;;7.77;;
68653;SDS011;55636;51.108;13.622;2022-12-07T04:15:09;10.03;;;7.80;;
68653;SDS011;55636;51.108;13.622;2022-12-07T04:16:11;9.30;;;7.30;;
68653;SDS011;55636;51.108;13.622;2022-12-07T04:17:14;9.43;;;7.50;;
68653;SDS011;55636;51.108;13.622;2022-12-07T04:18:16;9.43;;;7.60;;
68653;SDS011;55636;51.108;13.622;2022-12-07T04:19:20;9.10;;;7.70;;
68653;SDS011;55636;51.108;13.622;2022-12-07T04:20:50;9.50;;;7.87;;
68653;SDS011;55636;51.108;13.622;2022-12-07T04:21:59;9.63;;;8.00;;
68653;SDS011;55636;51.108;13.622;2022-12-07T04:23:03;9.80;;;7.73;;
68653;SDS011;55636;51.108;13.622;2022-12-07T04:24:05;9.50;;;7.60;;
68653;SDS011;55636;51.108;13.622;2022-12-07T04:25:08;10.10;;;7.97;;
68653;SDS011;55636;51.108;13.622;2022-12-07T04:26:11;9.27;;;7.27;;
68653;SDS011;55636;51.108;13.622;2022-12-07T04:27:13;9.17;;;7.57;;
68653;SDS011;55636;51.108;13.622;2022-12-07T04:31:13;10.17;;;7.47;;
68653;SDS011;55636;51.108;13.622;2022-12-07T04:32:16;10.00;;;7.80;;
68653;SDS011;55636;51.108;13.622;2022-12-07T04:33:18;10.03;;;7.97;;
68653;SDS011;55636;51.108;13.622;2022-12-07T04:40:55;9.80;;;7.70;;
68653;SDS011;55636;51.108;13.622;2022-12-07T04:42:02;10.07;;;7.57;;
68653;SDS011;55636;51.108;13.622;2022-12-07T04:43:11;9.53;;;7.60;;
68653;SDS011;55636;51.108;13.622;2022-12-07T04:44:13;8.30;;;7.07;;
68653;SDS011;55636;51.108;13.622;2022-12-07T04:45:16;9.10;;;7.07;;
68653;SDS011;55636;51.108;13.622;2022-12-07T04:46:19;9.10;;;7.10;;
68653;SDS011;55636;51.108;13.622;2022-12-07T04:47:21;8.80;;;7.57;;
68653;SDS011;55636;51.108;13.622;2022-12-07T04:48:23;9.70;;;7.70;;
68653;SDS011;55636;51.108;13.622;2022-12-07T04:49:26;8.17;;;6.80;;
68653;SDS011;55636;51.108;13.622;2022-12-07T04:50:28;9.43;;;7.70;;
68653;SDS011;55636;51.108;13.622;2022-12-07T04:51:30;8.53;;;7.27;;
68653;SDS011;55636;51.108;13.622;2022-12-07T04:52:32;9.10;;;7.50;;
68653;SDS011;55636;51.108;13.622;2022-12-07T04:53:35;9.10;;;7.57;;
68653;SDS011;55636;51.108;13.622;2022-12-07T04:56:12;12.33;;;7.60;;
68653;SDS011;55636;51.108;13.622;2022-12-07T04:57:15;8.87;;;7.23;;
68653;SDS011;55636;51.108;13.622;2022-12-07T04:58:17;10.87;;;7.50;;
68653;SDS011;55636;51.108;13.622;2022-12-07T04:59:20;9.67;;;6.90;;
68653;SDS011;55636;51.108;13.622;2022-12-07T05:00:22;11.33;;;7.80;;
68653;SDS011;55636;51.108;13.622;2022-12-07T05:01:30;8.53;;;7.17;;
68653;SDS011;55636;51.108;13.622;2022-12-07T05:02:33;8.20;;;7.07;;
68653;SDS011;55636;51.108;13.622;2022-12-07T05:03:36;9.20;;;7.50;;
68653;SDS011;55636;51.108;13.622;2022-12-07T05:04:39;8.33;;;7.20;;
68653;SDS011;55636;51.108;13.622;2022-12-07T05:05:41;8.53;;;6.90;;
68653;SDS011;55636;51.108;13.622;2022-12-07T05:06:43;9.63;;;7.40;;
68653;SDS011;55636;51.108;13.622;2022-12-07T05:07:46;7.57;;;6.47;;
68653;SDS011;55636;51.108;13.622;2022-12-07T05:08:48;8.93;;;6.80;;
68653;SDS011;55636;51.108;13.622;2022-12-07T05:09:50;10.13;;;7.43;;
68653;SDS011;55636;51.108;13.622;2022-12-07T05:10:52;7.40;;;6.23;;
68653;SDS011;55636;51.108;13.622;2022-12-07T05:11:55;8.17;;;6.83;;
68653;SDS011;55636;51.108;13.622;2022-12-07T05:12:57;7.80;;;6.47;;
68653;SDS011;55636;51.108;13.622;2022-12-07T05:14:01;7.73;;;6.80;;
68653;SDS011;55636;51.108;13.622;2022-12-07T05:15:05;8.33;;;6.90;;
68653;SDS011;55636;51.108;13.622;2022-12-07T05:16:07;9.17;;;6.90;;
68653;SDS011;55636;51.108;13.622;2022-12-07T05:17:10;7.93;;;6.30;;
68653;SDS011;55636;51.108;13.622;2022-12-07T05:18:16;8.23;;;6.63;;
68653;SDS011;55636;51.108;13.622;2022-12-07T05:19:20;7.80;;;6.27;;
68653;SDS011;55636;51.108;13.622;2022-12-07T05:20:22;8.47;;;6.37;;
68653;SDS011;55636;51.108;13.622;2022-12-07T05:21:24;7.43;;;6.50;;
68653;SDS011;55636;51.108;13.622;2022-12-07T05:22:27;7.17;;;6.17;;
68653;SDS011;55636;51.108;13.622;2022-12-07T05:23:30;7.87;;;6.20;;
68653;SDS011;55636;51.108;13.622;2022-12-07T05:24:32;7.60;;;6.03;;
68653;SDS011;55636;51.108;13.622;2022-12-07T05:25:34;8.63;;;5.63;;
68653;SDS011;55636;51.108;13.622;2022-12-07T05:26:37;6.83;;;6.00;;
68653;SDS011;55636;51.108;13.622;2022-12-07T05:27:39;7.40;;;5.37;;
68653;SDS011;55636;51.108;13.622;2022-12-07T05:30:24;6.60;;;5.37;;
68653;SDS011;55636;51.108;13.622;2022-12-07T05:31:28;6.70;;;5.63;;
68653;SDS011;55636;51.108;13.622;2022-12-07T05:32:30;6.43;;;5.30;;
68653;SDS011;55636;51.108;13.622;2022-12-07T05:33:32;7.53;;;5.00;;
68653;SDS011;55636;51.108;13.622;2022-12-07T05:34:35;5.40;;;4.77;;
68653;SDS011;55636;51.108;13.622;2022-12-07T05:35:37;5.63;;;4.83;;
68653;SDS011;55636;51.108;13.622;2022-12-07T05:36:39;6.13;;;5.10;;
68653;SDS011;55636;51.108;13.622;2022-12-07T05:37:42;5.77;;;4.77;;
68653;SDS011;55636;51.108;13.622;2022-12-07T05:38:44;5.67;;;4.53;;
68653;SDS011;55636;51.108;13.622;2022-12-07T05:39:47;5.73;;;4.30;;
68653;SDS011;55636;51.108;13.622;2022-12-07T05:40:49;4.90;;;4.40;;
68653;SDS011;55636;51.108;13.622;2022-12-07T05:41:52;6.07;;;4.47;;
68653;SDS011;55636;51.108;13.622;2022-12-07T05:43:13;5.00;;;4.50;;
68653;SDS011;55636;51.108;13.622;2022-12-07T05:44:15;4.90;;;4.40;;
68653;SDS011;55636;51.108;13.622;2022-12-07T05:45:17;5.13;;;4.17;;
68653;SDS011;55636;51.108;13.622;2022-12-07T05:47:57;5.03;;;3.80;;
68653;SDS011;55636;51.108;13.622;2022-12-07T05:48:59;5.33;;;4.23;;
68653;SDS011;55636;51.108;13.622;2022-12-07T05:50:02;4.27;;;3.83;;
68653;SDS011;55636;51.108;13.622;2022-12-07T05:51:08;5.43;;;4.03;;
68653;SDS011;55636;51.108;13.622;2022-12-07T05:52:10;4.30;;;3.70;;
68653;SDS011;55636;51.108;13.622;2022-12-07T05:53:15;4.50;;;3.67;;
68653;SDS011;55636;51.108;13.622;2022-12-07T05:54:24;4.30;;;3.90;;
68653;SDS011;55636;51.108;13.622;2022-12-07T05:55:26;4.30;;;3.90;;
68653;SDS011;55636;51.108;13.622;2022-12-07T05:56:29;4.73;;;3.80;;
68653;SDS011;55636;51.108;13.622;2022-12-07T05:57:31;5.30;;;3.67;;
68653;SDS011;55636;51.108;13.622;2022-12-07T05:58:33;4.43;;;3.77;;
68653;SDS011;55636;51.108;13.622;2022-12-07T05:59:54;4.53;;;3.83;;
68653;SDS011;55636;51.108;13.622;2022-12-07T06:00:59;3.97;;;3.50;;
68653;SDS011;55636;51.108;13.622;2022-12-07T06:02:11;3.80;;;3.40;;
68653;SDS011;55636;51.108;13.622;2022-12-07T06:03:15;3.90;;;3.47;;
68653;SDS011;55636;51.108;13.622;2022-12-07T06:04:18;5.50;;;3.80;;
68653;SDS011;55636;51.108;13.622;2022-12-07T06:05:21;4.40;;;3.73;;
68653;SDS011;55636;51.108;13.622;2022-12-07T06:06:23;4.20;;;3.80;;
68653;SDS011;55636;51.108;13.622;2022-12-07T06:07:26;4.23;;;3.60;;
68653;SDS011;55636;51.108;13.622;2022-12-07T06:08:38;4.30;;;3.77;;
68653;SDS011;55636;51.108;13.622;2022-12-07T06:09:47;5.57;;;4.47;;
68653;SDS011;55636;51.108;13.622;2022-12-07T06:10:49;4.83;;;3.90;;
68653;SDS011;55636;51.108;13.622;2022-12-07T06:12:12;4.93;;;3.90;;
68653;SDS011;55636;51.108;13.622;2022-12-07T06:13:45;3.80;;;3.27;;
68653;SDS011;55636;51.108;13.622;2022-12-07T06:16:30;4.30;;;3.67;;
68653;SDS011;55636;51.108;13.622;2022-12-07T06:17:33;4.13;;;3.07;;
68653;SDS011;55636;51.108;13.622;2022-12-07T06:18:35;4.70;;;3.40;;
68653;SDS011;55636;51.108;13.622;2022-12-07T06:19:38;3.40;;;3.00;;
68653;SDS011;55636;51.108;13.622;2022-12-07T06:20:40;4.27;;;3.40;;
68653;SDS011;55636;51.108;13.622;2022-12-07T06:21:52;4.30;;;3.80;;
68653;SDS011;55636;51.108;13.622;2022-12-07T06:22:54;3.30;;;3.00;;
68653;SDS011;55636;51.108;13.622;2022-12-07T06:23:57;3.60;;;3.20;;
68653;SDS011;55636;51.108;13.622;2022-12-07T06:24:59;3.80;;;3.30;;
68653;SDS011;55636;51.108;13.622;2022-12-07T06:26:11;3.90;;;3.50;;
68653;SDS011;55636;51.108;13.622;2022-12-07T06:27:14;4.10;;;3.60;;
68653;SDS011;55636;51.108;13.622;2022-12-07T06:28:16;4.43;;;3.60;;
68653;SDS011;55636;51.108;13.622;2022-12-07T06:29:18;4.63;;;3.50;;
68653;SDS011;55636;51.108;13.622;2022-12-07T06:30:21;3.97;;;3.57;;
68653;SDS011;55636;51.108;13.622;2022-12-07T06:31:23;4.70;;;3.70;;
68653;SDS011;55636;51.108;13.622;2022-12-07T06:32:26;3.90;;;3.50;;
68653;SDS011;55636;51.108;13.622;2022-12-07T06:33:34;4.33;;;3.50;;
68653;SDS011;55636;51.108;13.622;2022-12-07T06:34:37;3.87;;;3.47;;
68653;SDS011;55636;51.108;13.622;2022-12-07T06:35:39;3.73;;;3.30;;
68653;SDS011;55636;51.108;13.622;2022-12-07T06:36:43;4.07;;;3.67;;
68653;SDS011;55636;51.108;13.622;2022-12-07T06:37:46;4.33;;;3.33;;
68653;SDS011;55636;51.108;13.622;2022-12-07T06:38:49;3.60;;;3.23;;
68653;SDS011;55636;51.108;13.622;2022-12-07T06:40:00;4.10;;;3.70;;
68653;SDS011;55636;51.108;13.622;2022-12-07T06:41:04;4.03;;;3.67;;
68653;SDS011;55636;51.108;13.622;2022-12-07T06:42:07;3.57;;;3.27;;
68653;SDS011;55636;51.108;13.622;2022-12-07T06:43:09;3.80;;;3.40;;
68653;SDS011;55636;51.108;13.622;2022-12-07T06:44:21;3.77;;;3.37;;
68653;SDS011;55636;51.108;13.622;2022-12-07T06:45:24;4.17;;;3.77;;
68653;SDS011;55636;51.108;13.622;2022-12-07T06:46:27;3.97;;;3.27;;
68653;SDS011;55636;51.108;13.622;2022-12-07T06:47:33;4.73;;;3.43;;
68653;SDS011;55636;51.108;13.622;2022-12-07T06:48:45;4.00;;;3.23;;
68653;SDS011;55636;51.108;13.622;2022-12-07T06:50:11;4.77;;;3.90;;
68653;SDS011;55636;51.108;13.622;2022-12-07T06:51:22;3.77;;;3.30;;
68653;SDS011;55636;51.108;13.622;2022-12-07T07:06:35;4.67;;;3.97;;
68653;SDS011;55636;51.108;13.622;2022-12-07T07:07:40;4.03;;;3.63;;
68653;SDS011;55636;51.108;13.622;2022-12-07T07:08:59;3.80;;;3.40;;
68653;SDS011;55636;51.108;13.622;2022-12-07T07:10:01;4.30;;;3.50;;
68653;SDS011;55636;51.108;13.622;2022-12-07T07:11:05;3.97;;;3.57;;
68653;SDS011;55636;51.108;13.622;2022-12-07T07:12:08;3.70;;;3.30;;
68653;SDS011;55636;51.108;13.622;2022-12-07T07:13:13;4.40;;;3.70;;
68653;SDS011;55636;51.108;13.622;2022-12-07T07:14:17;4.10;;;3.70;;
68653;SDS011;55636;51.108;13.622;2022-12-07T07:15:21;4.20;;;3.47;;
68653;SDS011;55636;51.108;13.622;2022-12-07T07:16:26;4.13;;;3.57;;
68653;SDS011;55636;51.108;13.622;2022-12-07T07:17:28;3.80;;;3.50;;
68653;SDS011;55636;51.108;13.622;2022-12-07T07:18:30;3.47;;;3.17;;
68653;SDS011;55636;51.108;13.622;2022-12-07T07:19:33;3.67;;;3.37;;
68653;SDS011;55636;51.108;13.622;2022-12-07T07:20:36;4.10;;;3.70;;
68653;SDS011;55636;51.108;13.622;2022-12-07T07:21:39;3.73;;;3.43;;
68653;SDS011;55636;51.108;13.622;2022-12-07T07:22:41;4.10;;;3.70;;
68653;SDS011;55636;51.108;13.622;2022-12-07T07:23:47;3.80;;;3.43;;
68653;SDS011;55636;51.108;13.622;2022-12-07T07:24:49;3.40;;;3.10;;
68653;SDS011;55636;51.108;13.622;2022-12-07T07:25:51;4.13;;;3.70;;
68653;SDS011;55636;51.108;13.622;2022-12-07T07:26:53;4.03;;;3.63;;
68653;SDS011;55636;51.108;13.622;2022-12-07T07:27:56;3.93;;;3.53;;
68653;SDS011;55636;51.108;13.622;2022-12-07T07:29:00;3.83;;;3.37;;
68653;SDS011;55636;51.108;13.622;2022-12-07T07:30:07;3.67;;;3.10;;
68653;SDS011;55636;51.108;13.622;2022-12-07T07:31:10;3.40;;;3.10;;
68653;SDS011;55636;51.108;13.622;2022-12-07T07:32:12;5.37;;;3.13;;
68653;SDS011;55636;51.108;13.622;2022-12-07T07:33:15;4.10;;;3.17;;
68653;SDS011;55636;51.108;13.622;2022-12-07T07:34:17;3.50;;;3.20;;